sensor_id;sensor_type;location;lat;lon;timestamp;temperature;humidity
19493;DHT22;9887;54.366;10.958;2022-07-17T00:02:21;14.40;99.90
19493;DHT22;9887;54.366;10.958;2022-07-17T00:04:49;14.40;99.90
19493;DHT22;9887;54.366;10.958;2022-07-17T00:07:17;14.40;99.90
19493;DHT22;9887;54.366;10.958;2022-07-17T00:09:45;14.40;99.90
19493;DHT22;9887;54.366;10.958;2022-07-17T00:12:13;14.40;99.90
19493;DHT22;9887;54.366;10.958;2022-07-17T00:14:43;14.40;99.90
19493;DHT22;9887;54.366;10.958;2022-07-17T00:17:11;14.30;99.90
19493;DHT22;9887;54.366;10.958;2022-07-17T00:19:39;14.30;99.90
19493;DHT22;9887;54.366;10.958;2022-07-17T00:22:07;14.30;99.90
19493;DHT22;9887;54.366;10.958;2022-07-17T00:24:35;14.30;99.90
19493;DHT22;9887;54.366;10.958;2022-07-17T00:27:03;14.30;99.90
19493;DHT22;9887;54.366;10.958;2022-07-17T00:29:31;14.30;99.90
19493;DHT22;9887;54.366;10.958;2022-07-17T00:32:00;14.30;99.90
19493;DHT22;9887;54.366;10.958;2022-07-17T00:34:29;14.30;99.90
19493;DHT22;9887;54.366;10.958;2022-07-17T00:36:57;14.30;99.90
19493;DHT22;9887;54.366;10.958;2022-07-17T00:39:25;14.30;99.90
19493;DHT22;9887;54.366;10.958;2022-07-17T00:41:53;14.30;99.90
19493;DHT22;9887;54.366;10.958;2022-07-17T00:44:21;14.30;99.90
19493;DHT22;9887;54.366;10.958;2022-07-17T00:46:49;14.40;99.90
19493;DHT22;9887;54.366;10.958;2022-07-17T00:49:18;14.30;99.90
19493;DHT22;9887;54.366;10.958;2022-07-17T00:51:46;14.40;99.90
19493;DHT22;9887;54.366;10.958;2022-07-17T00:54:15;14.40;99.90
19493;DHT22;9887;54.366;10.958;2022-07-17T00:56:46;14.30;99.90
19493;DHT22;9887;54.366;10.958;2022-07-17T00:59:15;14.30;99.90
19493;DHT22;9887;54.366;10.958;2022-07-17T01:01:44;14.40;99.90
19493;DHT22;9887;54.366;10.958;2022-07-17T01:04:12;14.30;99.90
19493;DHT22;9887;54.366;10.958;2022-07-17T01:06:43;14.40;99.90
19493;DHT22;9887;54.366;10.958;2022-07-17T01:09:11;14.40;99.90
19493;DHT22;9887;54.366;10.958;2022-07-17T01:11:39;14.30;99.90
19493;DHT22;9887;54.366;10.958;2022-07-17T01:14:07;14.30;99.90
19493;DHT22;9887;54.366;10.958;2022-07-17T01:16:35;14.30;99.90
19493;DHT22;9887;54.366;10.958;2022-07-17T01:19:04;14.30;99.90
19493;DHT22;9887;54.366;10.958;2022-07-17T01:21:42;14.30;99.90
19493;DHT22;9887;54.366;10.958;2022-07-17T01:24:11;14.30;99.90
19493;DHT22;9887;54.366;10.958;2022-07-17T01:26:40;14.30;99.90
19493;DHT22;9887;54.366;10.958;2022-07-17T01:29:09;14.30;99.90
19493;DHT22;9887;54.366;10.958;2022-07-17T01:31:38;14.30;99.90
19493;DHT22;9887;54.366;10.958;2022-07-17T01:34:08;14.30;99.90
19493;DHT22;9887;54.366;10.958;2022-07-17T01:36:37;14.30;99.90
19493;DHT22;9887;54.366;10.958;2022-07-17T01:39:06;14.30;99.90
19493;DHT22;9887;54.366;10.958;2022-07-17T01:41:34;14.30;99.90
19493;DHT22;9887;54.366;10.958;2022-07-17T01:44:02;14.20;99.90
19493;DHT22;9887;54.366;10.958;2022-07-17T01:46:31;14.20;99.90
19493;DHT22;9887;54.366;10.958;2022-07-17T01:48:59;14.10;99.90
19493;DHT22;9887;54.366;10.958;2022-07-17T01:51:29;14.20;99.90
19493;DHT22;9887;54.366;10.958;2022-07-17T01:53:58;14.20;99.90
19493;DHT22;9887;54.366;10.958;2022-07-17T01:56:27;14.20;99.90
19493;DHT22;9887;54.366;10.958;2022-07-17T01:58:55;14.30;99.90
19493;DHT22;9887;54.366;10.958;2022-07-17T02:01:23;14.20;99.90
19493;DHT22;9887;54.366;10.958;2022-07-17T02:03:51;14.20;99.90
19493;DHT22;9887;54.366;10.958;2022-07-17T02:06:19;14.20;99.90
19493;DHT22;9887;54.366;10.958;2022-07-17T02:08:47;14.30;99.90
19493;DHT22;9887;54.366;10.958;2022-07-17T02:11:17;14.30;99.90
19493;DHT22;9887;54.366;10.958;2022-07-17T02:13:47;14.30;99.90
19493;DHT22;9887;54.366;10.958;2022-07-17T02:16:15;14.30;99.90
19493;DHT22;9887;54.366;10.958;2022-07-17T02:18:43;14.30;99.90
19493;DHT22;9887;54.366;10.958;2022-07-17T02:21:11;14.30;99.90
19493;DHT22;9887;54.366;10.958;2022-07-17T02:23:39;14.30;99.90
19493;DHT22;9887;54.366;10.958;2022-07-17T02:26:07;14.30;99.90
19493;DHT22;9887;54.366;10.958;2022-07-17T02:28:36;14.30;99.90
19493;DHT22;9887;54.366;10.958;2022-07-17T02:31:06;14.30;99.90
19493;DHT22;9887;54.366;10.958;2022-07-17T02:33:34;14.40;99.90
19493;DHT22;9887;54.366;10.958;2022-07-17T02:36:02;14.40;99.90
19493;DHT22;9887;54.366;10.958;2022-07-17T02:38:30;14.30;99.90
19493;DHT22;9887;54.366;10.958;2022-07-17T02:40:58;14.30;99.90
19493;DHT22;9887;54.366;10.958;2022-07-17T02:43:26;14.30;99.90
19493;DHT22;9887;54.366;10.958;2022-07-17T02:45:54;14.20;99.90
19493;DHT22;9887;54.366;10.958;2022-07-17T02:48:23;14.20;99.90
19493;DHT22;9887;54.366;10.958;2022-07-17T02:50:51;14.20;99.90
19493;DHT22;9887;54.366;10.958;2022-07-17T02:53:19;14.10;99.90
19493;DHT22;9887;54.366;10.958;2022-07-17T02:55:48;14.10;99.90
19493;DHT22;9887;54.366;10.958;2022-07-17T02:58:16;14.10;99.90
19493;DHT22;9887;54.366;10.958;2022-07-17T03:00:44;14.10;99.90
19493;DHT22;9887;54.366;10.958;2022-07-17T03:03:12;14.10;99.90
19493;DHT22;9887;54.366;10.958;2022-07-17T03:05:41;14.10;99.90
19493;DHT22;9887;54.366;10.958;2022-07-17T03:08:09;14.10;99.90
19493;DHT22;9887;54.366;10.958;2022-07-17T03:10:37;14.20;99.90
19493;DHT22;9887;54.366;10.958;2022-07-17T03:13:05;14.30;99.90
19493;DHT22;9887;54.366;10.958;2022-07-17T03:15:33;14.20;99.90
19493;DHT22;9887;54.366;10.958;2022-07-17T03:18:01;14.20;99.90
19493;DHT22;9887;54.366;10.958;2022-07-17T03:20:29;14.40;99.90
19493;DHT22;9887;54.366;10.958;2022-07-17T03:22:58;14.20;99.90
19493;DHT22;9887;54.366;10.958;2022-07-17T03:25:26;14.30;99.90
19493;DHT22;9887;54.366;10.958;2022-07-17T03:27:54;14.20;99.90
19493;DHT22;9887;54.366;10.958;2022-07-17T03:30:22;14.20;99.90
19493;DHT22;9887;54.366;10.958;2022-07-17T03:32:50;14.20;99.90
19493;DHT22;9887;54.366;10.958;2022-07-17T03:35:18;14.10;99.90
19493;DHT22;9887;54.366;10.958;2022-07-17T03:37:46;14.20;99.90
19493;DHT22;9887;54.366;10.958;2022-07-17T03:40:15;14.30;99.90
19493;DHT22;9887;54.366;10.958;2022-07-17T03:42:44;14.30;99.90
19493;DHT22;9887;54.366;10.958;2022-07-17T03:45:15;14.20;99.90
19493;DHT22;9887;54.366;10.958;2022-07-17T03:47:43;14.20;99.90
19493;DHT22;9887;54.366;10.958;2022-07-17T03:50:11;14.20;99.90
19493;DHT22;9887;54.366;10.958;2022-07-17T03:52:39;14.20;99.90
19493;DHT22;9887;54.366;10.958;2022-07-17T03:55:07;14.20;99.90
19493;DHT22;9887;54.366;10.958;2022-07-17T03:57:37;14.20;99.90
19493;DHT22;9887;54.366;10.958;2022-07-17T04:00:06;14.10;99.90
19493;DHT22;9887;54.366;10.958;2022-07-17T04:02:41;14.20;99.90
19493;DHT22;9887;54.366;10.958;2022-07-17T04:05:09;14.10;99.90
19493;DHT22;9887;54.366;10.958;2022-07-17T04:07:38;14.20;99.90
19493;DHT22;9887;54.366;10.958;2022-07-17T04:10:09;14.20;99.90
19493;DHT22;9887;54.366;10.958;2022-07-17T04:12:39;14.30;99.90
19493;DHT22;9887;54.366;10.958;2022-07-17T04:15:08;14.30;99.90
19493;DHT22;9887;54.366;10.958;2022-07-17T04:17:36;14.40;99.90
19493;DHT22;9887;54.366;10.958;2022-07-17T04:20:05;14.40;99.90
19493;DHT22;9887;54.366;10.958;2022-07-17T04:22:33;14.50;99.90
19493;DHT22;9887;54.366;10.958;2022-07-17T04:25:01;14.50;99.90
19493;DHT22;9887;54.366;10.958;2022-07-17T04:27:29;14.50;99.90
19493;DHT22;9887;54.366;10.958;2022-07-17T04:29:58;14.60;99.90
19493;DHT22;9887;54.366;10.958;2022-07-17T04:32:26;14.60;99.90
19493;DHT22;9887;54.366;10.958;2022-07-17T04:34:54;14.60;99.90
19493;DHT22;9887;54.366;10.958;2022-07-17T04:37:22;14.70;99.90
19493;DHT22;9887;54.366;10.958;2022-07-17T04:39:50;14.70;99.90
19493;DHT22;9887;54.366;10.958;2022-07-17T04:42:18;14.70;99.90
19493;DHT22;9887;54.366;10.958;2022-07-17T04:44:46;14.70;99.90
19493;DHT22;9887;54.366;10.958;2022-07-17T04:47:15;14.80;99.90
19493;DHT22;9887;54.366;10.958;2022-07-17T04:49:43;14.60;99.90
19493;DHT22;9887;54.366;10.958;2022-07-17T04:52:11;14.80;99.90
19493;DHT22;9887;54.366;10.958;2022-07-17T04:54:39;14.80;99.90
19493;DHT22;9887;54.366;10.958;2022-07-17T04:57:07;14.80;99.90
19493;DHT22;9887;54.366;10.958;2022-07-17T04:59:35;14.70;99.90
19493;DHT22;9887;54.366;10.958;2022-07-17T05:02:04;14.80;99.90
19493;DHT22;9887;54.366;10.958;2022-07-17T05:04:34;14.80;99.90
19493;DHT22;9887;54.366;10.958;2022-07-17T05:07:02;14.90;99.90
19493;DHT22;9887;54.366;10.958;2022-07-17T05:09:30;14.90;99.90
19493;DHT22;9887;54.366;10.958;2022-07-17T05:11:58;14.90;99.90
19493;DHT22;9887;54.366;10.958;2022-07-17T05:14:27;14.90;99.90
19493;DHT22;9887;54.366;10.958;2022-07-17T05:16:54;14.90;99.90
19493;DHT22;9887;54.366;10.958;2022-07-17T05:19:23;15.00;99.90
19493;DHT22;9887;54.366;10.958;2022-07-17T05:21:52;15.00;99.90
19493;DHT22;9887;54.366;10.958;2022-07-17T05:24:20;15.00;99.90
19493;DHT22;9887;54.366;10.958;2022-07-17T05:26:48;15.00;99.90
19493;DHT22;9887;54.366;10.958;2022-07-17T05:29:16;15.00;99.90
19493;DHT22;9887;54.366;10.958;2022-07-17T05:31:44;15.00;99.90
19493;DHT22;9887;54.366;10.958;2022-07-17T05:34:12;15.00;99.90
19493;DHT22;9887;54.366;10.958;2022-07-17T05:36:40;15.00;99.90
19493;DHT22;9887;54.366;10.958;2022-07-17T05:39:09;15.00;99.90
19493;DHT22;9887;54.366;10.958;2022-07-17T05:41:37;15.10;99.90
19493;DHT22;9887;54.366;10.958;2022-07-17T05:44:05;15.10;99.90
19493;DHT22;9887;54.366;10.958;2022-07-17T05:46:34;15.10;99.90
19493;DHT22;9887;54.366;10.958;2022-07-17T05:49:02;15.10;99.90
19493;DHT22;9887;54.366;10.958;2022-07-17T05:51:30;15.10;99.90
19493;DHT22;9887;54.366;10.958;2022-07-17T05:53:59;15.20;99.90
19493;DHT22;9887;54.366;10.958;2022-07-17T05:56:28;15.20;99.90
19493;DHT22;9887;54.366;10.958;2022-07-17T05:58:56;15.20;99.90
19493;DHT22;9887;54.366;10.958;2022-07-17T06:01:24;15.20;99.90
19493;DHT22;9887;54.366;10.958;2022-07-17T06:03:53;15.20;99.90
19493;DHT22;9887;54.366;10.958;2022-07-17T06:06:21;15.20;99.90
19493;DHT22;9887;54.366;10.958;2022-07-17T06:08:49;15.20;99.90
19493;DHT22;9887;54.366;10.958;2022-07-17T06:11:17;15.20;99.90
19493;DHT22;9887;54.366;10.958;2022-07-17T06:13:55;15.20;99.90
19493;DHT22;9887;54.366;10.958;2022-07-17T06:16:23;15.20;99.90
19493;DHT22;9887;54.366;10.958;2022-07-17T06:18:51;15.20;99.90
19493;DHT22;9887;54.366;10.958;2022-07-17T06:21:19;15.30;99.90
19493;DHT22;9887;54.366;10.958;2022-07-17T06:23:47;15.30;99.90
19493;DHT22;9887;54.366;10.958;2022-07-17T06:26:15;15.40;99.90
19493;DHT22;9887;54.366;10.958;2022-07-17T06:28:43;15.50;99.90
19493;DHT22;9887;54.366;10.958;2022-07-17T06:31:12;15.50;99.90
19493;DHT22;9887;54.366;10.958;2022-07-17T06:33:40;15.60;99.90
19493;DHT22;9887;54.366;10.958;2022-07-17T06:36:08;15.60;99.90
19493;DHT22;9887;54.366;10.958;2022-07-17T06:38:36;15.60;99.90
19493;DHT22;9887;54.366;10.958;2022-07-17T06:41:04;15.70;99.90
19493;DHT22;9887;54.366;10.958;2022-07-17T06:43:32;15.70;99.90
19493;DHT22;9887;54.366;10.958;2022-07-17T06:46:00;15.80;99.90
19493;DHT22;9887;54.366;10.958;2022-07-17T06:48:29;15.80;99.90
19493;DHT22;9887;54.366;10.958;2022-07-17T06:50:57;15.90;99.90
19493;DHT22;9887;54.366;10.958;2022-07-17T06:53:25;15.90;99.90
19493;DHT22;9887;54.366;10.958;2022-07-17T06:55:53;15.90;99.90
19493;DHT22;9887;54.366;10.958;2022-07-17T06:58:21;16.00;99.90
19493;DHT22;9887;54.366;10.958;2022-07-17T07:00:49;16.00;99.90
19493;DHT22;9887;54.366;10.958;2022-07-17T07:03:17;16.00;99.90
19493;DHT22;9887;54.366;10.958;2022-07-17T07:05:46;16.00;99.90
19493;DHT22;9887;54.366;10.958;2022-07-17T07:08:14;16.00;99.90
19493;DHT22;9887;54.366;10.958;2022-07-17T07:10:42;16.00;99.90
19493;DHT22;9887;54.366;10.958;2022-07-17T07:13:11;16.10;99.90
19493;DHT22;9887;54.366;10.958;2022-07-17T07:15:40;16.20;99.90
19493;DHT22;9887;54.366;10.958;2022-07-17T07:18:08;16.30;99.90
19493;DHT22;9887;54.366;10.958;2022-07-17T07:20:36;16.30;99.90
19493;DHT22;9887;54.366;10.958;2022-07-17T07:23:05;16.40;99.90
19493;DHT22;9887;54.366;10.958;2022-07-17T07:25:33;16.50;99.90
19493;DHT22;9887;54.366;10.958;2022-07-17T07:28:02;16.50;99.90
19493;DHT22;9887;54.366;10.958;2022-07-17T07:30:30;16.60;99.90
19493;DHT22;9887;54.366;10.958;2022-07-17T07:32:58;16.70;99.90
19493;DHT22;9887;54.366;10.958;2022-07-17T07:35:26;16.80;99.90
19493;DHT22;9887;54.366;10.958;2022-07-17T07:37:55;16.90;99.90
19493;DHT22;9887;54.366;10.958;2022-07-17T07:40:24;17.00;99.90
19493;DHT22;9887;54.366;10.958;2022-07-17T07:42:52;17.20;99.90
19493;DHT22;9887;54.366;10.958;2022-07-17T07:45:21;17.30;99.90
19493;DHT22;9887;54.366;10.958;2022-07-17T07:47:50;17.40;99.90
19493;DHT22;9887;54.366;10.958;2022-07-17T07:50:21;17.60;99.90
19493;DHT22;9887;54.366;10.958;2022-07-17T07:52:50;17.60;99.90
19493;DHT22;9887;54.366;10.958;2022-07-17T07:55:18;17.90;99.90
19493;DHT22;9887;54.366;10.958;2022-07-17T07:57:49;17.90;99.90
19493;DHT22;9887;54.366;10.958;2022-07-17T08:00:17;18.00;99.90
19493;DHT22;9887;54.366;10.958;2022-07-17T08:02:45;18.20;99.90
19493;DHT22;9887;54.366;10.958;2022-07-17T08:05:13;18.30;99.90
19493;DHT22;9887;54.366;10.958;2022-07-17T08:07:42;18.50;99.90
19493;DHT22;9887;54.366;10.958;2022-07-17T08:10:11;18.60;99.90
19493;DHT22;9887;54.366;10.958;2022-07-17T08:15:14;18.80;99.90
19493;DHT22;9887;54.366;10.958;2022-07-17T08:17:42;19.30;99.90
19493;DHT22;9887;54.366;10.958;2022-07-17T08:20:11;19.20;99.90
19493;DHT22;9887;54.366;10.958;2022-07-17T08:22:41;19.10;99.90
19493;DHT22;9887;54.366;10.958;2022-07-17T08:25:29;19.30;99.90
19493;DHT22;9887;54.366;10.958;2022-07-17T08:27:58;19.30;99.90
19493;DHT22;9887;54.366;10.958;2022-07-17T08:30:28;19.20;99.90
19493;DHT22;9887;54.366;10.958;2022-07-17T08:32:58;19.40;99.90
19493;DHT22;9887;54.366;10.958;2022-07-17T08:35:26;19.30;99.90
19493;DHT22;9887;54.366;10.958;2022-07-17T08:37:54;19.40;99.90
19493;DHT22;9887;54.366;10.958;2022-07-17T08:40:25;19.60;99.90
19493;DHT22;9887;54.366;10.958;2022-07-17T08:42:53;19.60;99.90
19493;DHT22;9887;54.366;10.958;2022-07-17T08:45:22;19.80;99.90
19493;DHT22;9887;54.366;10.958;2022-07-17T08:47:54;19.80;99.90
19493;DHT22;9887;54.366;10.958;2022-07-17T08:50:24;19.90;99.90
19493;DHT22;9887;54.366;10.958;2022-07-17T08:55:21;20.00;99.90
19493;DHT22;9887;54.366;10.958;2022-07-17T08:57:49;20.00;99.90
19493;DHT22;9887;54.366;10.958;2022-07-17T09:00:20;20.20;99.90
19493;DHT22;9887;54.366;10.958;2022-07-17T09:02:56;20.20;99.90
19493;DHT22;9887;54.366;10.958;2022-07-17T09:07:54;20.30;99.90
19493;DHT22;9887;54.366;10.958;2022-07-17T09:10:31;20.20;99.90
19493;DHT22;9887;54.366;10.958;2022-07-17T09:13:00;20.40;99.90
19493;DHT22;9887;54.366;10.958;2022-07-17T09:17:59;20.70;99.90
19493;DHT22;9887;54.366;10.958;2022-07-17T09:20:28;20.80;99.90
19493;DHT22;9887;54.366;10.958;2022-07-17T09:22:57;20.80;99.90
19493;DHT22;9887;54.366;10.958;2022-07-17T09:25:32;21.00;99.90
19493;DHT22;9887;54.366;10.958;2022-07-17T09:28:01;21.20;99.90
19493;DHT22;9887;54.366;10.958;2022-07-17T09:30:31;21.30;99.90
19493;DHT22;9887;54.366;10.958;2022-07-17T09:33:00;21.30;99.90
19493;DHT22;9887;54.366;10.958;2022-07-17T09:35:29;21.20;99.90
19493;DHT22;9887;54.366;10.958;2022-07-17T09:37:58;21.30;99.90
19493;DHT22;9887;54.366;10.958;2022-07-17T09:40:28;21.30;99.90
19493;DHT22;9887;54.366;10.958;2022-07-17T09:43:13;21.30;99.90
19493;DHT22;9887;54.366;10.958;2022-07-17T09:45:42;21.40;99.90
19493;DHT22;9887;54.366;10.958;2022-07-17T09:48:12;21.50;99.90
19493;DHT22;9887;54.366;10.958;2022-07-17T09:50:40;21.60;99.90
19493;DHT22;9887;54.366;10.958;2022-07-17T09:53:09;21.60;99.90
19493;DHT22;9887;54.366;10.958;2022-07-17T09:55:37;21.80;99.90
19493;DHT22;9887;54.366;10.958;2022-07-17T09:58:15;21.80;99.90
19493;DHT22;9887;54.366;10.958;2022-07-17T10:00:47;22.00;99.90
19493;DHT22;9887;54.366;10.958;2022-07-17T10:03:18;21.90;99.90
19493;DHT22;9887;54.366;10.958;2022-07-17T10:05:46;21.80;99.90
19493;DHT22;9887;54.366;10.958;2022-07-17T10:08:15;22.00;99.90
19493;DHT22;9887;54.366;10.958;2022-07-17T10:10:43;22.10;99.90
19493;DHT22;9887;54.366;10.958;2022-07-17T10:13:11;22.30;99.90
19493;DHT22;9887;54.366;10.958;2022-07-17T10:15:43;22.10;99.90
19493;DHT22;9887;54.366;10.958;2022-07-17T10:18:11;22.30;99.90
19493;DHT22;9887;54.366;10.958;2022-07-17T10:20:40;22.50;99.90
19493;DHT22;9887;54.366;10.958;2022-07-17T10:23:12;22.50;99.90
19493;DHT22;9887;54.366;10.958;2022-07-17T10:25:41;22.60;99.90
19493;DHT22;9887;54.366;10.958;2022-07-17T10:28:09;22.60;99.90
19493;DHT22;9887;54.366;10.958;2022-07-17T10:30:41;22.60;99.90
19493;DHT22;9887;54.366;10.958;2022-07-17T10:35:47;22.70;99.90
19493;DHT22;9887;54.366;10.958;2022-07-17T10:38:15;22.70;99.90
19493;DHT22;9887;54.366;10.958;2022-07-17T10:40:43;22.80;99.90
19493;DHT22;9887;54.366;10.958;2022-07-17T10:43:11;22.80;99.90
19493;DHT22;9887;54.366;10.958;2022-07-17T10:45:41;22.90;99.90
19493;DHT22;9887;54.366;10.958;2022-07-17T10:50:41;23.10;99.90
19493;DHT22;9887;54.366;10.958;2022-07-17T10:53:13;23.20;99.90
19493;DHT22;9887;54.366;10.958;2022-07-17T10:55:51;23.20;99.90
19493;DHT22;9887;54.366;10.958;2022-07-17T10:58:23;23.20;99.90
19493;DHT22;9887;54.366;10.958;2022-07-17T11:01:13;23.10;99.90
19493;DHT22;9887;54.366;10.958;2022-07-17T11:03:42;23.20;99.90
19493;DHT22;9887;54.366;10.958;2022-07-17T11:06:13;23.40;99.90
19493;DHT22;9887;54.366;10.958;2022-07-17T11:08:45;23.50;99.90
19493;DHT22;9887;54.366;10.958;2022-07-17T11:11:15;23.50;99.90
19493;DHT22;9887;54.366;10.958;2022-07-17T11:13:53;23.60;99.90
19493;DHT22;9887;54.366;10.958;2022-07-17T11:16:27;23.60;99.90
19493;DHT22;9887;54.366;10.958;2022-07-17T11:18:56;23.80;99.90
19493;DHT22;9887;54.366;10.958;2022-07-17T11:21:25;23.80;99.90
19493;DHT22;9887;54.366;10.958;2022-07-17T11:23:55;23.80;99.90
19493;DHT22;9887;54.366;10.958;2022-07-17T11:26:24;23.80;99.90
19493;DHT22;9887;54.366;10.958;2022-07-17T11:28:53;23.80;99.90
19493;DHT22;9887;54.366;10.958;2022-07-17T11:31:28;23.90;99.90
19493;DHT22;9887;54.366;10.958;2022-07-17T11:33:58;23.90;99.90
19493;DHT22;9887;54.366;10.958;2022-07-17T11:36:27;23.90;99.90
19493;DHT22;9887;54.366;10.958;2022-07-17T11:38:59;24.00;99.90
19493;DHT22;9887;54.366;10.958;2022-07-17T11:41:32;24.10;99.90
19493;DHT22;9887;54.366;10.958;2022-07-17T11:44:01;24.10;99.90
19493;DHT22;9887;54.366;10.958;2022-07-17T11:46:30;24.20;99.90
19493;DHT22;9887;54.366;10.958;2022-07-17T11:48:59;24.20;99.90
19493;DHT22;9887;54.366;10.958;2022-07-17T11:54:09;24.10;99.90
19493;DHT22;9887;54.366;10.958;2022-07-17T11:56:38;24.00;99.90
19493;DHT22;9887;54.366;10.958;2022-07-17T11:59:07;24.10;99.90
19493;DHT22;9887;54.366;10.958;2022-07-17T12:01:39;24.10;99.90
19493;DHT22;9887;54.366;10.958;2022-07-17T12:04:08;23.90;99.90
19493;DHT22;9887;54.366;10.958;2022-07-17T12:06:43;24.00;99.90
19493;DHT22;9887;54.366;10.958;2022-07-17T12:09:13;24.10;99.90
19493;DHT22;9887;54.366;10.958;2022-07-17T12:11:48;24.30;99.90
19493;DHT22;9887;54.366;10.958;2022-07-17T12:14:17;24.30;99.90
19493;DHT22;9887;54.366;10.958;2022-07-17T12:16:45;24.40;99.90
19493;DHT22;9887;54.366;10.958;2022-07-17T12:19:15;24.50;99.90
19493;DHT22;9887;54.366;10.958;2022-07-17T12:21:54;24.50;99.90
19493;DHT22;9887;54.366;10.958;2022-07-17T12:24:26;24.60;99.90
19493;DHT22;9887;54.366;10.958;2022-07-17T12:26:56;24.70;99.90
19493;DHT22;9887;54.366;10.958;2022-07-17T12:29:25;24.60;99.90
19493;DHT22;9887;54.366;10.958;2022-07-17T12:32:05;24.70;99.90
19493;DHT22;9887;54.366;10.958;2022-07-17T12:34:34;24.70;99.90
19493;DHT22;9887;54.366;10.958;2022-07-17T12:37:04;24.80;99.90
19493;DHT22;9887;54.366;10.958;2022-07-17T12:39:34;24.60;99.90
19493;DHT22;9887;54.366;10.958;2022-07-17T12:42:03;24.40;99.90
19493;DHT22;9887;54.366;10.958;2022-07-17T12:44:31;24.30;99.90
19493;DHT22;9887;54.366;10.958;2022-07-17T12:46:59;24.30;99.90
19493;DHT22;9887;54.366;10.958;2022-07-17T12:49:28;24.30;99.90
19493;DHT22;9887;54.366;10.958;2022-07-17T12:51:57;24.30;99.90
19493;DHT22;9887;54.366;10.958;2022-07-17T12:54:26;24.30;99.90
19493;DHT22;9887;54.366;10.958;2022-07-17T12:56:55;24.20;99.90
19493;DHT22;9887;54.366;10.958;2022-07-17T13:01:52;24.60;99.90
19493;DHT22;9887;54.366;10.958;2022-07-17T13:04:21;24.60;99.90
19493;DHT22;9887;54.366;10.958;2022-07-17T13:06:49;24.80;99.90
19493;DHT22;9887;54.366;10.958;2022-07-17T13:09:17;23.20;99.90
19493;DHT22;9887;54.366;10.958;2022-07-17T13:11:46;24.70;99.90
19493;DHT22;9887;54.366;10.958;2022-07-17T13:14:15;24.60;99.90
19493;DHT22;9887;54.366;10.958;2022-07-17T13:16:44;24.70;99.90
19493;DHT22;9887;54.366;10.958;2022-07-17T13:19:12;24.70;99.90
19493;DHT22;9887;54.366;10.958;2022-07-17T13:21:40;24.80;99.90
19493;DHT22;9887;54.366;10.958;2022-07-17T13:24:08;24.70;99.90
19493;DHT22;9887;54.366;10.958;2022-07-17T13:26:36;24.90;99.90
19493;DHT22;9887;54.366;10.958;2022-07-17T13:29:04;24.90;99.90
19493;DHT22;9887;54.366;10.958;2022-07-17T13:31:34;25.00;99.90
19493;DHT22;9887;54.366;10.958;2022-07-17T13:34:02;25.10;99.90
19493;DHT22;9887;54.366;10.958;2022-07-17T13:36:30;25.20;99.90
19493;DHT22;9887;54.366;10.958;2022-07-17T13:38:58;25.20;99.90
19493;DHT22;9887;54.366;10.958;2022-07-17T13:41:26;25.20;99.90
19493;DHT22;9887;54.366;10.958;2022-07-17T13:43:54;24.90;99.90
19493;DHT22;9887;54.366;10.958;2022-07-17T13:46:22;24.80;99.90
19493;DHT22;9887;54.366;10.958;2022-07-17T13:48:52;24.90;99.90
19493;DHT22;9887;54.366;10.958;2022-07-17T13:51:20;24.80;99.90
19493;DHT22;9887;54.366;10.958;2022-07-17T13:53:48;24.70;99.90
19493;DHT22;9887;54.366;10.958;2022-07-17T13:56:16;24.60;99.90
19493;DHT22;9887;54.366;10.958;2022-07-17T13:58:45;24.60;99.90
19493;DHT22;9887;54.366;10.958;2022-07-17T14:01:13;24.70;99.90
19493;DHT22;9887;54.366;10.958;2022-07-17T14:03:48;24.50;99.90
19493;DHT22;9887;54.366;10.958;2022-07-17T14:06:18;24.50;99.90
19493;DHT22;9887;54.366;10.958;2022-07-17T14:08:46;24.30;99.90
19493;DHT22;9887;54.366;10.958;2022-07-17T14:11:14;24.30;99.90
19493;DHT22;9887;54.366;10.958;2022-07-17T14:13:42;24.30;99.90
19493;DHT22;9887;54.366;10.958;2022-07-17T14:16:16;24.50;99.90
19493;DHT22;9887;54.366;10.958;2022-07-17T14:18:44;24.50;99.90
19493;DHT22;9887;54.366;10.958;2022-07-17T14:21:28;24.60;99.90
19493;DHT22;9887;54.366;10.958;2022-07-17T14:23:56;24.50;99.90
19493;DHT22;9887;54.366;10.958;2022-07-17T14:26:24;24.50;99.90
19493;DHT22;9887;54.366;10.958;2022-07-17T14:28:53;24.60;99.90
19493;DHT22;9887;54.366;10.958;2022-07-17T14:31:21;24.50;99.90
19493;DHT22;9887;54.366;10.958;2022-07-17T14:33:49;24.40;99.90
19493;DHT22;9887;54.366;10.958;2022-07-17T14:36:17;24.30;99.90
19493;DHT22;9887;54.366;10.958;2022-07-17T14:38:46;24.40;99.90
19493;DHT22;9887;54.366;10.958;2022-07-17T14:41:14;24.50;99.90
19493;DHT22;9887;54.366;10.958;2022-07-17T14:43:42;24.60;99.90
19493;DHT22;9887;54.366;10.958;2022-07-17T14:46:10;24.40;99.90
19493;DHT22;9887;54.366;10.958;2022-07-17T14:48:38;24.50;99.90
19493;DHT22;9887;54.366;10.958;2022-07-17T14:51:06;24.50;99.90
19493;DHT22;9887;54.366;10.958;2022-07-17T14:53:35;24.50;99.90
19493;DHT22;9887;54.366;10.958;2022-07-17T14:56:05;24.50;99.90
19493;DHT22;9887;54.366;10.958;2022-07-17T14:58:33;24.60;99.90
19493;DHT22;9887;54.366;10.958;2022-07-17T15:01:01;24.50;99.90
19493;DHT22;9887;54.366;10.958;2022-07-17T15:03:30;24.50;99.90
19493;DHT22;9887;54.366;10.958;2022-07-17T15:05:59;24.40;99.90
19493;DHT22;9887;54.366;10.958;2022-07-17T15:08:27;24.40;99.90
19493;DHT22;9887;54.366;10.958;2022-07-17T15:10:55;24.30;99.90
19493;DHT22;9887;54.366;10.958;2022-07-17T15:13:25;24.50;99.90
19493;DHT22;9887;54.366;10.958;2022-07-17T15:15:53;24.40;99.90
19493;DHT22;9887;54.366;10.958;2022-07-17T15:18:21;24.30;99.90
19493;DHT22;9887;54.366;10.958;2022-07-17T15:20:49;24.30;99.90
19493;DHT22;9887;54.366;10.958;2022-07-17T15:23:17;24.30;99.90
19493;DHT22;9887;54.366;10.958;2022-07-17T15:25:45;24.30;99.90
19493;DHT22;9887;54.366;10.958;2022-07-17T15:28:13;24.20;99.90
19493;DHT22;9887;54.366;10.958;2022-07-17T15:30:42;24.10;99.90
19493;DHT22;9887;54.366;10.958;2022-07-17T15:33:10;24.20;99.90
19493;DHT22;9887;54.366;10.958;2022-07-17T15:35:38;24.10;99.90
19493;DHT22;9887;54.366;10.958;2022-07-17T15:38:06;24.10;99.90
19493;DHT22;9887;54.366;10.958;2022-07-17T15:40:34;24.10;99.90
19493;DHT22;9887;54.366;10.958;2022-07-17T15:43:02;24.00;99.90
19493;DHT22;9887;54.366;10.958;2022-07-17T15:45:30;23.80;99.90
19493;DHT22;9887;54.366;10.958;2022-07-17T15:48:00;23.80;99.90
19493;DHT22;9887;54.366;10.958;2022-07-17T15:50:28;23.80;99.90
19493;DHT22;9887;54.366;10.958;2022-07-17T15:52:56;23.70;99.90
19493;DHT22;9887;54.366;10.958;2022-07-17T15:55:24;23.60;99.90
19493;DHT22;9887;54.366;10.958;2022-07-17T15:57:52;23.40;99.90
19493;DHT22;9887;54.366;10.958;2022-07-17T16:00:21;23.30;99.90
19493;DHT22;9887;54.366;10.958;2022-07-17T16:02:49;23.20;99.90